createdAt,value
2022-11-16T00:02:20.130Z,20.27
2022-11-16T00:04:53.107Z,20.54
2022-11-16T00:07:25.285Z,20.80
2022-11-16T00:10:00.399Z,19.85
2022-11-16T00:12:34.270Z,19.68
2022-11-16T00:15:09.545Z,19.65
2022-11-16T00:17:42.070Z,19.66
2022-11-16T00:20:15.021Z,20.09
2022-11-16T00:22:48.208Z,20.67
2022-11-16T00:25:22.513Z,20.94
2022-11-16T00:27:59.421Z,20.30
2022-11-16T00:30:32.537Z,20.08
2022-11-16T00:33:07.339Z,20.06
2022-11-16T00:35:47.023Z,19.93
2022-11-16T00:38:22.632Z,19.92
2022-11-16T00:40:57.203Z,20.61
2022-11-16T00:43:31.739Z,20.84
2022-11-16T00:46:04.265Z,20.38
2022-11-16T00:48:37.175Z,20.08
2022-11-16T00:51:10.456Z,20.06
2022-11-16T00:53:44.548Z,20.14
2022-11-16T00:56:18.479Z,20.03
2022-11-16T00:58:52.460Z,19.99
2022-11-16T01:01:25.141Z,20.37
2022-11-16T01:03:57.422Z,20.68
2022-11-16T01:06:35.259Z,20.86
2022-11-16T01:09:07.869Z,20.35
2022-11-16T01:11:56.979Z,20.00
2022-11-16T01:14:31.866Z,20.11
2022-11-16T01:17:07.013Z,20.09
2022-11-16T01:19:40.062Z,20.07
2022-11-16T01:22:12.730Z,20.17
2022-11-16T01:24:45.622Z,20.83
2022-11-16T03:48:24.710Z,23.67
2022-11-16T03:57:40.608Z,23.60
2022-11-16T04:01:01.455Z,23.83
2022-11-16T04:03:46.094Z,23.77
2022-11-16T04:10:13.552Z,23.79
2022-11-16T04:13:12.717Z,23.86
2022-11-16T04:20:04.540Z,23.98
2022-11-16T04:23:38.335Z,24.16
2022-11-16T04:27:04.997Z,23.86
2022-11-16T04:30:07.311Z,23.95
2022-11-16T04:40:37.986Z,24.37
2022-11-16T04:49:58.253Z,24.40
2022-11-16T04:52:38.083Z,24.57
2022-11-16T04:55:31.397Z,24.59
2022-11-16T04:58:55.580Z,24.34
2022-11-16T05:06:20.886Z,24.69
2022-11-16T05:09:34.889Z,24.69
2022-11-16T05:12:37.868Z,24.68
2022-11-16T05:15:44.073Z,24.73
2022-11-16T05:18:43.809Z,24.74
2022-11-16T05:22:01.835Z,24.84
2022-11-16T05:25:36.732Z,24.80
2022-11-16T05:28:20.121Z,24.80
2022-11-16T05:31:26.233Z,24.72
2022-11-16T05:39:35.935Z,25.02
2022-11-16T05:42:12.052Z,25.11
2022-11-16T05:45:51.093Z,25.21
2022-11-16T05:49:31.728Z,25.18
2022-11-16T06:00:44.598Z,25.29
2022-11-16T06:08:37.859Z,25.56
